Time;durP1;ratioP1;P1;durP2;ratioP2;P2;SDS_P1;SDS_P2;PMS_P1;PMS_P2;Temp;Humidity;BMP_temperature;BMP_pressure;BME280_temperature;BME280_humidity;BME280_pressure;Samples;Min_cycle;Max_cycle;Signal;HPM_P1;HPM_P2
2022/08/13 00:00:32;;;;;;;2.95;1.85;;;;;;;;;;5077576;28;20447;-58
2022/08/13 00:02:59;;;;;;;5.38;1.58;;;;;;;;;;5080788;28;20127;-59
2022/08/13 00:05:26;;;;;;;3.22;1.92;;;;;;;;;;5086848;28;20043;-59
2022/08/13 00:07:52;;;;;;;2.65;1.85;;;;;;;;;;5086768;28;20442;-59
2022/08/13 00:10:23;;;;;;;4.07;2.00;;;;;;;;;;5072464;28;20752;-59
2022/08/13 00:13:00;;;;;;;3.33;2.00;;;;;;;;;;5074014;28;20040;-59
2022/08/13 00:15:32;;;;;;;2.60;1.70;;;;;;;;;;5072123;28;20056;-59
2022/08/13 00:18:03;;;;;;;1.83;1.60;;;;;;;;;;5088554;28;20082;-58
2022/08/13 00:20:35;;;;;;;3.33;1.77;;;;;;;;;;5092035;28;20052;-58
2022/08/13 00:23:01;;;;;;;2.85;1.80;;;;;;;;;;5093485;28;20050;-58
2022/08/13 00:25:27;;;;;;;3.88;2.00;;;;;;;;;;5093114;28;20036;-59
2022/08/13 00:27:57;;;;;;;3.55;1.88;;;;;;;;;;5079740;28;20044;-59
2022/08/13 00:30:24;;;;;;;2.38;1.92;;;;;;;;;;5087682;28;20052;-59
2022/08/13 00:32:50;;;;;;;2.38;1.70;;;;;;;;;;5081819;28;20048;-59
2022/08/13 00:35:18;;;;;;;2.78;1.80;;;;;;;;;;5075621;28;20519;-58
2022/08/13 00:37:44;;;;;;;3.13;1.60;;;;;;;;;;5083577;28;20511;-58
2022/08/13 00:40:10;;;;;;;2.92;1.90;;;;;;;;;;5080466;28;20040;-59
2022/08/13 00:42:40;;;;;;;2.53;1.80;;;;;;;;;;5093310;28;20080;-59
2022/08/13 00:45:07;;;;;;;3.88;1.98;;;;;;;;;;5092668;28;20097;-58
2022/08/13 00:50:18;;;;;;;2.53;1.77;;;;;;;;;;5090144;28;20044;-58
2022/08/13 00:52:45;;;;;;;2.97;1.85;;;;;;;;;;5086599;28;20044;-58
2022/08/13 00:55:17;;;;;;;2.60;1.50;;;;;;;;;;5092929;28;20081;-59
2022/08/13 00:57:44;;;;;;;3.88;1.73;;;;;;;;;;5076524;28;20049;-59
2022/08/13 01:00:13;;;;;;;3.40;1.83;;;;;;;;;;5077713;28;20072;-59
2022/08/13 01:02:49;;;;;;;3.55;1.80;;;;;;;;;;5072004;28;20562;-59
2022/08/13 01:05:16;;;;;;;2.95;1.80;;;;;;;;;;5079115;28;20044;-58
2022/08/13 01:07:43;;;;;;;2.42;1.70;;;;;;;;;;5082247;28;20045;-58
2022/08/13 01:10:10;;;;;;;2.90;1.90;;;;;;;;;;5080875;28;20041;-59
2022/08/13 01:12:37;;;;;;;2.25;1.70;;;;;;;;;;5083541;28;20075;-58
2022/08/13 01:15:04;;;;;;;4.32;1.95;;;;;;;;;;5072191;28;20056;-58
2022/08/13 01:17:31;;;;;;;2.92;1.88;;;;;;;;;;5076782;28;20097;-59
2022/08/13 01:19:58;;;;;;;3.90;1.65;;;;;;;;;;5080008;28;20098;-58
2022/08/13 01:22:28;;;;;;;2.58;1.58;;;;;;;;;;5071763;28;20059;-58
2022/08/13 01:24:55;;;;;;;3.15;1.98;;;;;;;;;;5072276;28;20462;-58
2022/08/13 01:27:21;;;;;;;2.40;1.60;;;;;;;;;;5074056;28;20117;-58
2022/08/13 01:29:48;;;;;;;4.18;2.00;;;;;;;;;;5086551;28;20795;-58
2022/08/13 01:32:15;;;;;;;2.72;1.67;;;;;;;;;;5080122;28;20090;-58
2022/08/13 01:34:43;;;;;;;2.45;1.70;;;;;;;;;;5091493;28;20039;-58
2022/08/13 01:37:11;;;;;;;3.00;1.77;;;;;;;;;;5087204;28;20111;-58
2022/08/13 01:39:38;;;;;;;2.72;1.80;;;;;;;;;;5074798;28;20075;-58
2022/08/13 01:42:04;;;;;;;2.60;1.63;;;;;;;;;;5086565;28;20080;-59
2022/08/13 01:44:31;;;;;;;2.47;1.90;;;;;;;;;;5090215;28;20055;-58
2022/08/13 01:52:34;;;;;;;2.58;2.05;;;;;;;;;;5091280;28;20222;-58
2022/08/13 01:55:04;;;;;;;2.75;1.83;;;;;;;;;;5073789;28;20048;-58
2022/08/13 01:57:33;;;;;;;2.85;1.80;;;;;;;;;;5070975;28;20519;-59
2022/08/13 02:00:00;;;;;;;2.28;1.55;;;;;;;;;;5071583;28;20127;-58
2022/08/13 02:02:30;;;;;;;2.88;1.85;;;;;;;;;;5087892;28;20052;-58
2022/08/13 02:04:56;;;;;;;2.17;1.65;;;;;;;;;;5091033;28;20043;-58
2022/08/13 02:07:22;;;;;;;1.75;1.38;;;;;;;;;;5074116;28;20049;-58
2022/08/13 02:09:48;;;;;;;2.67;1.67;;;;;;;;;;5071420;28;20116;-58
2022/08/13 02:12:15;;;;;;;3.42;1.95;;;;;;;;;;5087784;28;20039;-58
2022/08/13 02:14:42;;;;;;;2.65;1.75;;;;;;;;;;5073048;28;20046;-58
2022/08/13 02:17:27;;;;;;;2.40;1.50;;;;;;;;;;5071449;28;20107;-58
2022/08/13 02:19:57;;;;;;;4.15;1.90;;;;;;;;;;5070127;28;20611;-58
2022/08/13 02:22:25;;;;;;;4.05;1.98;;;;;;;;;;5070896;28;20044;-58
2022/08/13 02:24:55;;;;;;;1.92;1.55;;;;;;;;;;5071143;28;20080;-58
2022/08/13 02:27:24;;;;;;;2.03;1.48;;;;;;;;;;5088185;28;20036;-58
2022/08/13 02:29:51;;;;;;;2.92;1.85;;;;;;;;;;5090207;28;20036;-58
2022/08/13 02:32:18;;;;;;;3.22;1.63;;;;;;;;;;5070163;28;20059;-58
2022/08/13 02:34:51;;;;;;;3.97;1.83;;;;;;;;;;5069447;28;20079;-58
2022/08/13 02:37:24;;;;;;;2.38;1.65;;;;;;;;;;5083876;28;20036;-58
2022/08/13 02:39:50;;;;;;;3.28;1.60;;;;;;;;;;5090120;28;20039;-58
2022/08/13 02:42:17;;;;;;;2.70;1.88;;;;;;;;;;5089212;28;20051;-58
2022/08/13 02:44:47;;;;;;;2.35;1.63;;;;;;;;;;5070231;28;20048;-58
2022/08/13 02:47:14;;;;;;;3.78;1.80;;;;;;;;;;5072660;28;20381;-58
2022/08/13 02:49:41;;;;;;;2.55;1.75;;;;;;;;;;5078781;28;20106;-58
2022/08/13 02:52:10;;;;;;;1.95;1.50;;;;;;;;;;5090957;28;20544;-58
2022/08/13 02:54:40;;;;;;;2.15;1.45;;;;;;;;;;5078157;28;20504;-58
2022/08/13 02:57:06;;;;;;;2.75;1.90;;;;;;;;;;5090703;28;20090;-58
2022/08/13 02:59:33;;;;;;;2.78;1.70;;;;;;;;;;5082132;28;20040;-58
2022/08/13 03:02:00;;;;;;;2.10;1.60;;;;;;;;;;5088679;28;20079;-58
2022/08/13 03:04:26;;;;;;;2.05;1.67;;;;;;;;;;5072969;28;20052;-58
2022/08/13 03:06:52;;;;;;;2.40;1.60;;;;;;;;;;5085421;28;20051;-58
2022/08/13 03:09:22;;;;;;;3.45;1.75;;;;;;;;;;5089614;28;20036;-58
2022/08/13 03:11:49;;;;;;;2.45;1.65;;;;;;;;;;5090214;28;20551;-58
2022/08/13 03:14:16;;;;;;;2.97;1.90;;;;;;;;;;5090642;28;20400;-58
2022/08/13 03:16:42;;;;;;;3.42;1.67;;;;;;;;;;5088318;28;20060;-58
2022/08/13 03:19:08;;;;;;;2.42;1.45;;;;;;;;;;5079872;28;20599;-58
2022/08/13 03:21:36;;;;;;;2.22;1.52;;;;;;;;;;5068587;28;20036;-58
2022/08/13 03:24:03;;;;;;;2.50;1.58;;;;;;;;;;5070108;28;20044;-58
2022/08/13 03:26:31;;;;;;;3.30;1.90;;;;;;;;;;5069923;28;20056;-58
2022/08/13 03:28:57;;;;;;;2.08;1.60;;;;;;;;;;5074427;28;20059;-58
2022/08/13 03:31:24;;;;;;;1.63;1.40;;;;;;;;;;5069382;28;20123;-58
2022/08/13 03:33:50;;;;;;;2.60;1.80;;;;;;;;;;5069934;28;20044;-58
2022/08/13 03:36:17;;;;;;;2.30;1.60;;;;;;;;;;5069572;28;20044;-58
2022/08/13 03:38:43;;;;;;;2.45;1.67;;;;;;;;;;5069299;28;20127;-58
2022/08/13 03:41:14;;;;;;;3.15;1.83;;;;;;;;;;5069991;28;20047;-58
2022/08/13 03:43:42;;;;;;;2.45;1.70;;;;;;;;;;5065392;28;20055;-58
2022/08/13 03:46:22;;;;;;;2.72;1.50;;;;;;;;;;5076023;28;20057;-58
2022/08/13 03:48:49;;;;;;;2.00;1.30;;;;;;;;;;5069959;28;20041;-58
2022/08/13 03:51:16;;;;;;;1.88;1.58;;;;;;;;;;5068792;28;20045;-58
2022/08/13 03:53:43;;;;;;;2.17;1.50;;;;;;;;;;5075184;28;20048;-58
2022/08/13 03:56:09;;;;;;;2.47;1.45;;;;;;;;;;5089556;28;20040;-58
2022/08/13 03:58:37;;;;;;;2.70;1.70;;;;;;;;;;5089581;28;20059;-58
2022/08/13 04:01:04;;;;;;;2.38;1.60;;;;;;;;;;5089134;28;20059;-58
2022/08/13 04:03:36;;;;;;;2.58;1.63;;;;;;;;;;5085611;28;20040;-58
2022/08/13 04:06:09;;;;;;;1.77;1.50;;;;;;;;;;5073861;28;20048;-58
2022/08/13 04:08:36;;;;;;;2.60;1.63;;;;;;;;;;5076630;28;20055;-60
2022/08/13 04:11:13;;;;;;;2.80;1.50;;;;;;;;;;5068591;28;20377;-58
2022/08/13 04:13:39;;;;;;;3.00;1.38;;;;;;;;;;5069348;28;20047;-58
2022/08/13 04:16:07;;;;;;;1.98;1.40;;;;;;;;;;5085033;28;20040;-58
2022/08/13 04:18:35;;;;;;;2.50;1.70;;;;;;;;;;5089742;28;20036;-58
2022/08/13 04:21:02;;;;;;;2.60;1.70;;;;;;;;;;5084292;28;20086;-58
2022/08/13 04:23:28;;;;;;;2.67;1.67;;;;;;;;;;5069991;28;20094;-59
2022/08/13 04:25:55;;;;;;;2.33;1.42;;;;;;;;;;5071386;28;20076;-58
2022/08/13 04:28:21;;;;;;;2.00;1.60;;;;;;;;;;5073603;28;20109;-58
2022/08/13 04:30:48;;;;;;;2.80;1.52;;;;;;;;;;5071150;28;20041;-58
2022/08/13 04:33:15;;;;;;;2.03;1.30;;;;;;;;;;5073298;28;20056;-58
2022/08/13 04:35:42;;;;;;;1.48;1.38;;;;;;;;;;5084698;28;20537;-58
2022/08/13 04:38:09;;;;;;;2.20;1.60;;;;;;;;;;5093338;28;20485;-58
2022/08/13 04:40:35;;;;;;;1.40;1.30;;;;;;;;;;5080025;28;20052;-58
2022/08/13 04:43:02;;;;;;;2.70;1.60;;;;;;;;;;5072791;28;20496;-58
2022/08/13 04:45:30;;;;;;;2.45;1.60;;;;;;;;;;5071743;28;20105;-58
2022/08/13 04:48:00;;;;;;;2.60;1.48;;;;;;;;;;5072504;28;20040;-58
2022/08/13 04:50:26;;;;;;;2.80;1.70;;;;;;;;;;5072177;28;20048;-58
2022/08/13 04:52:53;;;;;;;3.35;1.60;;;;;;;;;;5072158;28;20045;-58
2022/08/13 04:55:19;;;;;;;2.58;1.60;;;;;;;;;;5072243;28;20041;-58
2022/08/13 04:57:45;;;;;;;2.03;1.60;;;;;;;;;;5090291;28;20039;-58
2022/08/13 05:00:11;;;;;;;2.25;1.70;;;;;;;;;;5089699;28;20040;-59
2022/08/13 05:02:38;;;;;;;2.13;1.60;;;;;;;;;;5072186;28;20040;-59
2022/08/13 05:05:05;;;;;;;2.85;1.50;;;;;;;;;;5081186;28;20389;-58
2022/08/13 05:07:31;;;;;;;2.38;1.65;;;;;;;;;;5092036;28;20036;-58
2022/08/13 05:09:57;;;;;;;2.78;1.58;;;;;;;;;;5084035;28;20072;-58
2022/08/13 05:12:23;;;;;;;2.08;1.30;;;;;;;;;;5071930;28;20040;-59
2022/08/13 05:14:49;;;;;;;1.80;1.30;;;;;;;;;;5071770;28;20048;-58
2022/08/13 05:17:15;;;;;;;2.35;1.63;;;;;;;;;;5072753;28;20059;-59
2022/08/13 05:19:42;;;;;;;2.50;1.58;;;;;;;;;;5071039;28;20052;-59
2022/08/13 05:22:08;;;;;;;2.40;1.48;;;;;;;;;;5076857;28;20558;-59
2022/08/13 05:24:37;;;;;;;3.67;1.67;;;;;;;;;;5091407;28;20048;-58
2022/08/13 05:27:03;;;;;;;2.50;1.80;;;;;;;;;;5089920;28;20046;-59
2022/08/13 05:29:29;;;;;;;1.55;1.35;;;;;;;;;;5072022;28;20036;-58
2022/08/13 05:31:56;;;;;;;2.42;1.30;;;;;;;;;;5070490;28;20059;-59
2022/08/13 05:34:24;;;;;;;1.92;1.52;;;;;;;;;;5071160;28;20045;-59
2022/08/13 05:36:51;;;;;;;2.05;1.40;;;;;;;;;;5071334;28;20440;-59
2022/08/13 05:39:17;;;;;;;2.50;1.70;;;;;;;;;;5071794;28;20055;-59
2022/08/13 05:41:43;;;;;;;2.00;1.52;;;;;;;;;;5086861;28;20055;-59
2022/08/13 05:44:09;;;;;;;1.88;1.50;;;;;;;;;;5073716;28;20566;-58
2022/08/13 05:46:37;;;;;;;2.25;1.60;;;;;;;;;;5070623;28;20516;-58
2022/08/13 05:49:03;;;;;;;2.33;1.52;;;;;;;;;;5085513;28;20036;-59
2022/08/13 05:51:31;;;;;;;1.95;1.40;;;;;;;;;;5077973;28;20495;-59
2022/08/13 05:53:59;;;;;;;3.15;1.88;;;;;;;;;;5071045;28;20423;-59
2022/08/13 05:56:32;;;;;;;2.38;1.60;;;;;;;;;;5090308;28;20040;-59
2022/08/13 05:58:59;;;;;;;1.42;1.30;;;;;;;;;;5090388;28;20480;-59
2022/08/13 06:04:10;;;;;;;1.75;1.30;;;;;;;;;;5073258;28;20056;-59
2022/08/13 06:06:37;;;;;;;2.20;1.50;;;;;;;;;;5078640;28;20040;-59
2022/08/13 06:09:05;;;;;;;1.63;1.33;;;;;;;;;;5069476;28;20123;-59
2022/08/13 06:11:31;;;;;;;1.92;1.38;;;;;;;;;;5071136;28;20045;-59
2022/08/13 06:13:57;;;;;;;2.35;1.73;;;;;;;;;;5070450;28;20051;-59
2022/08/13 06:16:28;;;;;;;1.98;1.40;;;;;;;;;;5084133;28;20047;-58
2022/08/13 06:18:57;;;;;;;1.60;1.40;;;;;;;;;;5089392;28;20465;-60
2022/08/13 06:21:24;;;;;;;1.67;1.40;;;;;;;;;;5090311;28;20044;-59
2022/08/13 06:23:51;;;;;;;2.35;1.63;;;;;;;;;;5085158;28;20053;-59
2022/08/13 06:26:20;;;;;;;1.48;1.38;;;;;;;;;;5071085;28;20051;-59
2022/08/13 06:28:46;;;;;;;2.97;1.50;;;;;;;;;;5081975;28;20399;-59
2022/08/13 06:31:16;;;;;;;2.03;1.65;;;;;;;;;;5080706;28;20041;-60
2022/08/13 06:33:43;;;;;;;1.67;1.42;;;;;;;;;;5091491;28;20048;-58
2022/08/13 06:36:13;;;;;;;2.40;1.50;;;;;;;;;;5080626;28;20044;-58
2022/08/13 06:38:50;;;;;;;1.88;1.40;;;;;;;;;;5089723;28;20039;-58
2022/08/13 06:41:16;;;;;;;2.42;1.40;;;;;;;;;;5070206;28;20052;-57
2022/08/13 06:43:44;;;;;;;2.45;1.40;;;;;;;;;;5070834;28;20056;-58
2022/08/13 06:46:11;;;;;;;5.30;1.70;;;;;;;;;;5069144;28;20067;-58
2022/08/13 06:48:39;;;;;;;1.92;1.30;;;;;;;;;;5070414;28;20486;-59
2022/08/13 06:51:06;;;;;;;2.00;1.30;;;;;;;;;;5080678;28;20044;-58
2022/08/13 06:53:35;;;;;;;1.77;1.50;;;;;;;;;;5086082;28;20086;-58
2022/08/13 06:56:03;;;;;;;1.45;1.25;;;;;;;;;;5090192;28;20051;-58
2022/08/13 06:58:30;;;;;;;2.30;1.80;;;;;;;;;;5090916;28;20119;-58
2022/08/13 07:00:58;;;;;;;1.83;1.50;;;;;;;;;;5088822;28;20128;-58
2022/08/13 07:03:28;;;;;;;1.75;1.40;;;;;;;;;;5090718;28;20112;-58
2022/08/13 07:05:56;;;;;;;1.70;1.50;;;;;;;;;;5088001;28;20048;-58
2022/08/13 07:08:24;;;;;;;1.70;1.40;;;;;;;;;;5091283;28;20080;-58
2022/08/13 07:11:21;;;;;;;2.33;1.50;;;;;;;;;;5089241;28;20119;-58
2022/08/13 07:13:39;;;;;;;2.33;1.40;;;;;;;;;;5087196;28;20080;-58
2022/08/13 07:16:06;;;;;;;1.90;1.40;;;;;;;;;;5076080;28;20098;-58
2022/08/13 07:18:33;;;;;;;3.08;1.40;;;;;;;;;;5070238;28;20123;-58
2022/08/13 07:21:00;;;;;;;2.22;1.40;;;;;;;;;;5069049;28;20083;-58
2022/08/13 07:23:26;;;;;;;1.85;1.52;;;;;;;;;;5070028;28;20397;-58
2022/08/13 07:25:53;;;;;;;1.23;1.13;;;;;;;;;;5071757;28;20048;-58
2022/08/13 07:28:20;;;;;;;3.33;1.60;;;;;;;;;;5089946;28;20032;-58
2022/08/13 07:30:46;;;;;;;1.92;1.50;;;;;;;;;;5088614;28;20380;-58
2022/08/13 07:33:13;;;;;;;2.53;1.60;;;;;;;;;;5087923;28;20043;-58
2022/08/13 07:35:39;;;;;;;2.20;1.40;;;;;;;;;;5087964;28;20044;-58
2022/08/13 07:38:05;;;;;;;1.77;1.30;;;;;;;;;;5089927;28;20215;-58
2022/08/13 07:40:33;;;;;;;1.55;1.30;;;;;;;;;;5089552;28;20536;-58
2022/08/13 07:43:03;;;;;;;2.05;1.40;;;;;;;;;;5090201;28;20048;-58
2022/08/13 07:45:29;;;;;;;1.80;1.40;;;;;;;;;;5087940;28;20051;-58
2022/08/13 07:47:56;;;;;;;2.03;1.35;;;;;;;;;;5090442;28;20044;-58
2022/08/13 07:50:23;;;;;;;2.13;1.40;;;;;;;;;;5088677;28;20040;-58
2022/08/13 07:52:57;;;;;;;1.40;1.27;;;;;;;;;;5090222;28;20054;-58
2022/08/13 07:55:25;;;;;;;1.77;1.40;;;;;;;;;;5089172;28;20374;-58
2022/08/13 07:57:51;;;;;;;2.47;1.40;;;;;;;;;;5089631;28;20472;-58
2022/08/13 08:00:29;;;;;;;1.73;1.40;;;;;;;;;;5089797;28;20277;-58
2022/08/13 08:03:02;;;;;;;1.50;1.40;;;;;;;;;;5092160;28;20044;-58
2022/08/13 08:05:33;;;;;;;2.03;1.40;;;;;;;;;;5089805;28;20089;-58
2022/08/13 08:08:00;;;;;;;1.77;1.30;;;;;;;;;;5088696;28;20083;-59
2022/08/13 08:10:27;;;;;;;1.75;1.30;;;;;;;;;;5091139;28;20039;-58
2022/08/13 08:13:00;;;;;;;2.05;1.30;;;;;;;;;;5092662;28;20096;-59
2022/08/13 08:15:27;;;;;;;2.08;1.40;;;;;;;;;;5064752;28;20232;-58
2022/08/13 08:18:01;;;;;;;1.65;1.40;;;;;;;;;;5093573;28;20044;-59
2022/08/13 08:20:27;;;;;;;1.90;1.30;;;;;;;;;;5093002;28;20154;-59
2022/08/13 08:22:53;;;;;;;1.38;1.27;;;;;;;;;;5093590;28;20044;-58
2022/08/13 08:25:20;;;;;;;2.08;1.50;;;;;;;;;;5092149;28;20072;-58
2022/08/13 08:27:47;;;;;;;6.22;2.13;;;;;;;;;;5092220;28;20048;-59
2022/08/13 08:30:17;;;;;;;1.70;1.50;;;;;;;;;;5092253;28;20048;-58
2022/08/13 08:32:44;;;;;;;2.15;1.27;;;;;;;;;;5093380;28;20044;-59
2022/08/13 08:35:10;;;;;;;2.58;1.52;;;;;;;;;;5085303;28;20400;-58
2022/08/13 08:43:10;;;;;;;3.70;1.77;;;;;;;;;;5072640;28;20093;-58
2022/08/13 08:45:36;;;;;;;2.15;1.48;;;;;;;;;;5071446;28;20135;-58
2022/08/13 08:48:03;;;;;;;3.20;1.60;;;;;;;;;;5073125;28;20043;-58
2022/08/13 08:50:29;;;;;;;2.72;1.65;;;;;;;;;;5071373;28;20055;-57
2022/08/13 08:55:42;;;;;;;4.93;1.52;;;;;;;;;;5072447;28;20079;-59
2022/08/13 08:58:08;;;;;;;4.75;1.70;;;;;;;;;;5072330;28;20044;-59
2022/08/13 09:00:36;;;;;;;4.63;1.40;;;;;;;;;;5071664;28;20041;-58
2022/08/13 09:03:03;;;;;;;2.97;1.52;;;;;;;;;;5072823;28;20053;-58
2022/08/13 09:05:29;;;;;;;3.55;1.55;;;;;;;;;;5071542;28;20055;-59
2022/08/13 09:07:55;;;;;;;2.10;1.25;;;;;;;;;;5076658;28;20092;-58
2022/08/13 09:10:23;;;;;;;1.77;1.48;;;;;;;;;;5090132;28;20088;-57
2022/08/13 09:12:50;;;;;;;1.73;1.40;;;;;;;;;;5093217;28;20079;-59
2022/08/13 09:15:21;;;;;;;2.55;1.63;;;;;;;;;;5091326;28;20049;-58
2022/08/13 09:17:49;;;;;;;2.72;1.50;;;;;;;;;;5092512;28;20400;-58
2022/08/13 09:20:16;;;;;;;2.40;1.40;;;;;;;;;;5091388;28;20044;-59
2022/08/13 09:22:44;;;;;;;7.03;1.75;;;;;;;;;;5089267;28;20043;-59
2022/08/13 09:25:12;;;;;;;2.72;1.50;;;;;;;;;;5080069;28;20048;-58
2022/08/13 09:27:38;;;;;;;2.28;1.60;;;;;;;;;;5092932;28;20043;-58
2022/08/13 09:30:05;;;;;;;1.98;1.33;;;;;;;;;;5091805;28;20542;-58
2022/08/13 09:32:32;;;;;;;5.97;1.60;;;;;;;;;;5073665;28;20150;-58
2022/08/13 09:34:58;;;;;;;1.85;1.60;;;;;;;;;;5091512;28;20059;-59
2022/08/13 09:37:25;;;;;;;2.42;1.60;;;;;;;;;;5091901;28;20048;-58
2022/08/13 09:39:55;;;;;;;4.43;1.85;;;;;;;;;;5092669;28;20093;-58
2022/08/13 09:42:33;;;;;;;2.40;1.50;;;;;;;;;;5091934;28;20048;-59
2022/08/13 09:45:00;;;;;;;3.03;1.85;;;;;;;;;;5091427;28;20464;-58
2022/08/13 09:47:26;;;;;;;2.97;1.55;;;;;;;;;;5083428;28;20078;-58
2022/08/13 09:49:52;;;;;;;1.83;1.30;;;;;;;;;;5085070;28;20059;-59
2022/08/13 09:52:22;;;;;;;1.45;1.30;;;;;;;;;;5091962;28;20051;-59
2022/08/13 09:54:49;;;;;;;4.47;1.60;;;;;;;;;;5092479;28;20168;-58
2022/08/13 09:57:17;;;;;;;1.90;1.38;;;;;;;;;;5091487;28;20036;-58
2022/08/13 09:59:43;;;;;;;1.83;1.27;;;;;;;;;;5091599;28;20036;-59
2022/08/13 10:02:09;;;;;;;2.05;1.20;;;;;;;;;;5090586;28;20059;-58
2022/08/13 10:04:41;;;;;;;2.40;1.52;;;;;;;;;;5090613;28;20075;-58
2022/08/13 10:07:08;;;;;;;2.47;1.48;;;;;;;;;;5089368;28;20043;-58
2022/08/13 10:09:35;;;;;;;1.98;1.42;;;;;;;;;;5085173;28;20043;-58
2022/08/13 10:12:05;;;;;;;1.60;1.40;;;;;;;;;;5088314;28;20044;-58
2022/08/13 10:14:31;;;;;;;2.78;1.38;;;;;;;;;;5090654;28;20048;-58
2022/08/13 10:16:58;;;;;;;4.05;1.55;;;;;;;;;;5089899;28;20376;-58
2022/08/13 10:19:24;;;;;;;1.73;1.42;;;;;;;;;;5086938;28;20059;-58
2022/08/13 10:21:51;;;;;;;1.90;1.25;;;;;;;;;;5089211;28;20039;-59
2022/08/13 10:24:17;;;;;;;1.40;1.30;;;;;;;;;;5090250;28;20499;-59
2022/08/13 10:26:43;;;;;;;1.77;1.45;;;;;;;;;;5087743;28;20050;-58
2022/08/13 10:29:10;;;;;;;1.52;1.40;;;;;;;;;;5090899;28;20032;-58
2022/08/13 10:31:36;;;;;;;2.28;1.40;;;;;;;;;;5089253;28;20122;-59
2022/08/13 10:34:03;;;;;;;2.92;1.40;;;;;;;;;;5090733;28;20062;-59
2022/08/13 10:36:31;;;;;;;1.63;1.20;;;;;;;;;;5083926;28;20553;-59
2022/08/13 10:38:58;;;;;;;4.88;1.73;;;;;;;;;;5089435;28;20039;-58
2022/08/13 10:41:24;;;;;;;1.90;1.48;;;;;;;;;;5088351;28;20044;-58
2022/08/13 10:43:50;;;;;;;1.92;1.52;;;;;;;;;;5091040;28;20121;-59
2022/08/13 10:46:17;;;;;;;1.27;1.17;;;;;;;;;;5089200;28;20036;-58
2022/08/13 10:48:44;;;;;;;2.47;1.38;;;;;;;;;;5087833;28;20481;-58
2022/08/13 10:51:10;;;;;;;1.42;1.33;;;;;;;;;;5071658;28;20041;-58
2022/08/13 10:53:55;;;;;;;1.58;1.23;;;;;;;;;;5070683;28;20048;-58
2022/08/13 10:56:21;;;;;;;1.95;1.35;;;;;;;;;;5068564;28;20047;-58
2022/08/13 10:58:48;;;;;;;2.30;1.30;;;;;;;;;;5087449;28;20473;-58
2022/08/13 11:01:15;;;;;;;3.05;1.52;;;;;;;;;;5069587;28;20096;-58
2022/08/13 11:03:44;;;;;;;3.08;1.20;;;;;;;;;;5069950;28;20482;-58
2022/08/13 11:06:11;;;;;;;1.95;1.50;;;;;;;;;;5080012;28;20044;-58
2022/08/13 11:08:37;;;;;;;2.33;1.50;;;;;;;;;;5073857;28;20162;-58
2022/08/13 11:11:07;;;;;;;1.50;1.40;;;;;;;;;;5077183;28;20473;-58
2022/08/13 11:13:36;;;;;;;1.88;1.20;;;;;;;;;;5075025;28;20041;-59
2022/08/13 11:16:02;;;;;;;2.38;1.40;;;;;;;;;;5069247;28;20066;-58
2022/08/13 11:18:29;;;;;;;3.25;1.60;;;;;;;;;;5070132;28;20135;-58
2022/08/13 11:21:07;;;;;;;1.42;1.33;;;;;;;;;;5069760;28;20044;-59
2022/08/13 11:23:34;;;;;;;1.90;1.70;;;;;;;;;;5083022;28;20040;-58
2022/08/13 11:26:01;;;;;;;1.67;1.38;;;;;;;;;;5070183;28;20048;-58
2022/08/13 11:28:27;;;;;;;2.08;1.40;;;;;;;;;;5070078;28;20068;-58
2022/08/13 11:30:54;;;;;;;1.40;1.30;;;;;;;;;;5070750;28;20476;-59
2022/08/13 11:33:20;;;;;;;2.25;1.40;;;;;;;;;;5077577;28;20417;-58
2022/08/13 11:35:47;;;;;;;1.60;1.50;;;;;;;;;;5076658;28;20414;-59
2022/08/13 11:38:14;;;;;;;1.67;1.35;;;;;;;;;;5093214;28;20117;-59
2022/08/13 11:40:44;;;;;;;2.83;1.33;;;;;;;;;;5085113;28;20100;-59
2022/08/13 11:43:10;;;;;;;2.03;1.58;;;;;;;;;;5082633;28;20355;-59
2022/08/13 11:45:36;;;;;;;2.03;1.20;;;;;;;;;;5084649;28;20461;-59
2022/08/13 11:48:05;;;;;;;2.05;1.30;;;;;;;;;;5077149;28;20115;-58
2022/08/13 11:50:31;;;;;;;2.42;1.20;;;;;;;;;;5071185;28;20045;-58
2022/08/13 11:52:57;;;;;;;2.55;1.30;;;;;;;;;;5072377;28;20447;-59
2022/08/13 11:55:23;;;;;;;2.00;1.50;;;;;;;;;;5072966;28;20439;-59
2022/08/13 11:57:59;;;;;;;1.83;1.20;;;;;;;;;;5082308;28;20038;-58
2022/08/13 12:00:26;;;;;;;1.73;1.20;;;;;;;;;;5072880;28;20055;-60
2022/08/13 12:02:52;;;;;;;2.03;1.20;;;;;;;;;;5079936;28;20197;-59
2022/08/13 12:05:19;;;;;;;1.98;1.50;;;;;;;;;;5079357;28;20060;-58
2022/08/13 12:07:45;;;;;;;1.63;1.30;;;;;;;;;;5073593;28;20048;-59
2022/08/13 12:10:11;;;;;;;2.15;1.30;;;;;;;;;;5074686;28;20051;-59
2022/08/13 12:12:37;;;;;;;1.38;1.27;;;;;;;;;;5083776;28;20048;-58
2022/08/13 12:15:03;;;;;;;1.35;1.20;;;;;;;;;;5073153;28;20194;-58
2022/08/13 12:17:30;;;;;;;3.00;1.50;;;;;;;;;;5078189;28;20044;-58
2022/08/13 12:19:56;;;;;;;2.00;1.48;;;;;;;;;;5087437;28;20396;-59
2022/08/13 12:22:22;;;;;;;3.08;1.70;;;;;;;;;;5077916;28;20059;-58
2022/08/13 12:24:48;;;;;;;3.00;1.90;;;;;;;;;;5078275;28;20051;-58
2022/08/13 12:27:14;;;;;;;3.65;2.10;;;;;;;;;;5074879;28;20039;-58
2022/08/13 12:29:40;;;;;;;5.75;2.10;;;;;;;;;;5076685;28;20115;-60
2022/08/13 12:32:06;;;;;;;3.55;1.70;;;;;;;;;;5076991;28;20477;-59
2022/08/13 12:34:32;;;;;;;3.20;2.15;;;;;;;;;;5076573;28;20370;-60
2022/08/13 12:36:58;;;;;;;5.65;2.17;;;;;;;;;;5074286;28;20036;-60
2022/08/13 12:39:24;;;;;;;2.38;1.90;;;;;;;;;;5075844;28;20040;-60
2022/08/13 12:41:50;;;;;;;2.28;2.00;;;;;;;;;;5077085;28;20039;-59
2022/08/13 12:44:16;;;;;;;2.78;1.80;;;;;;;;;;5080951;28;20051;-60
2022/08/13 12:46:42;;;;;;;2.53;2.00;;;;;;;;;;5070068;28;20047;-59
2022/08/13 12:49:08;;;;;;;3.72;1.83;;;;;;;;;;5081316;28;20127;-61
2022/08/13 12:51:34;;;;;;;2.20;1.77;;;;;;;;;;5076066;28;20378;-60
2022/08/13 12:54:01;;;;;;;2.17;1.70;;;;;;;;;;5079597;28;20415;-59
2022/08/13 12:56:27;;;;;;;2.17;1.70;;;;;;;;;;5076472;28;20040;-60
2022/08/13 12:58:53;;;;;;;5.43;2.30;;;;;;;;;;5078716;28;20464;-60
2022/08/13 13:01:19;;;;;;;2.42;1.80;;;;;;;;;;5076529;28;20063;-59
2022/08/13 13:03:45;;;;;;;3.03;2.05;;;;;;;;;;5073148;28;20044;-59
2022/08/13 13:06:11;;;;;;;2.42;1.83;;;;;;;;;;5069444;28;20041;-60
2022/08/13 13:08:37;;;;;;;2.78;1.90;;;;;;;;;;5070151;28;20051;-60
2022/08/13 13:11:10;;;;;;;4.00;2.30;;;;;;;;;;5082188;28;20385;-60
2022/08/13 13:13:36;;;;;;;2.67;1.88;;;;;;;;;;5071012;28;20530;-60
2022/08/13 13:16:07;;;;;;;3.60;2.20;;;;;;;;;;5071170;28;20045;-60
2022/08/13 13:18:34;;;;;;;3.00;1.88;;;;;;;;;;5072058;28;20135;-59
2022/08/13 13:21:00;;;;;;;2.70;1.92;;;;;;;;;;5073428;28;20048;-60
2022/08/13 13:23:27;;;;;;;3.40;1.83;;;;;;;;;;5072512;28;20044;-59
2022/08/13 13:25:54;;;;;;;3.22;1.90;;;;;;;;;;5081476;28;20386;-60
2022/08/13 13:28:24;;;;;;;2.20;1.90;;;;;;;;;;5074364;28;20036;-60
2022/08/13 13:30:51;;;;;;;3.30;2.00;;;;;;;;;;5070410;28;20044;-60
2022/08/13 13:33:18;;;;;;;3.50;2.20;;;;;;;;;;5087451;28;20044;-59
2022/08/13 13:35:45;;;;;;;2.92;1.80;;;;;;;;;;5069156;28;20481;-59
2022/08/13 13:38:11;;;;;;;2.00;1.80;;;;;;;;;;5071190;28;20041;-59
2022/08/13 13:40:39;;;;;;;2.85;1.90;;;;;;;;;;5070048;28;20097;-59
2022/08/13 13:43:05;;;;;;;2.50;1.80;;;;;;;;;;5069590;28;20041;-59
2022/08/13 13:45:32;;;;;;;2.58;1.83;;;;;;;;;;5069384;28;20044;-59
2022/08/13 13:48:00;;;;;;;2.03;1.70;;;;;;;;;;5078513;28;20122;-59
2022/08/13 13:50:27;;;;;;;2.45;1.92;;;;;;;;;;5069175;28;20080;-60
2022/08/13 13:52:54;;;;;;;2.63;1.80;;;;;;;;;;5074803;28;20063;-59
2022/08/13 13:55:20;;;;;;;2.03;1.77;;;;;;;;;;5070452;28;20130;-60
2022/08/13 13:57:46;;;;;;;2.92;1.98;;;;;;;;;;5092634;28;20045;-61
2022/08/13 14:00:13;;;;;;;3.05;2.10;;;;;;;;;;5070469;28;20477;-60
2022/08/13 14:02:47;;;;;;;2.72;1.83;;;;;;;;;;5076585;28;20123;-59
2022/08/13 14:05:13;;;;;;;2.28;1.88;;;;;;;;;;5069975;28;20057;-60
2022/08/13 14:07:40;;;;;;;2.05;1.80;;;;;;;;;;5070934;28;20040;-59
2022/08/13 14:10:06;;;;;;;3.28;1.80;;;;;;;;;;5071313;28;20523;-60
2022/08/13 14:12:33;;;;;;;2.38;1.80;;;;;;;;;;5071090;28;20063;-60
2022/08/13 14:14:59;;;;;;;3.65;1.92;;;;;;;;;;5070926;28;20044;-60
2022/08/13 14:17:30;;;;;;;3.17;2.00;;;;;;;;;;5081643;28;20047;-59
2022/08/13 14:19:58;;;;;;;2.42;1.90;;;;;;;;;;5072549;28;20127;-60
2022/08/13 14:22:24;;;;;;;2.92;2.00;;;;;;;;;;5071067;28;20052;-59
2022/08/13 14:24:50;;;;;;;4.07;2.00;;;;;;;;;;5070260;28;20037;-60
2022/08/13 14:27:17;;;;;;;2.83;2.30;;;;;;;;;;5084335;28;20040;-59
2022/08/13 14:29:43;;;;;;;4.43;2.17;;;;;;;;;;5083919;28;20036;-59
2022/08/13 14:32:09;;;;;;;3.20;1.90;;;;;;;;;;5075575;28;20114;-59
2022/08/13 14:34:35;;;;;;;2.70;2.10;;;;;;;;;;5083924;28;20070;-60
2022/08/13 14:37:02;;;;;;;3.00;2.03;;;;;;;;;;5072038;28;20684;-59
2022/08/13 14:39:28;;;;;;;3.72;2.00;;;;;;;;;;5087873;28;20119;-60
2022/08/13 14:41:54;;;;;;;2.83;2.20;;;;;;;;;;5074581;28;20076;-59
2022/08/13 14:44:20;;;;;;;12.35;2.15;;;;;;;;;;5070753;28;20053;-60
2022/08/13 14:46:46;;;;;;;3.88;2.00;;;;;;;;;;5069319;28;20122;-60
2022/08/13 14:49:12;;;;;;;6.05;2.40;;;;;;;;;;5076561;28;20469;-60
2022/08/13 14:51:39;;;;;;;3.92;2.00;;;;;;;;;;5073903;28;20435;-60
2022/08/13 14:54:05;;;;;;;3.05;1.95;;;;;;;;;;5072195;28;20397;-60
2022/08/13 14:56:32;;;;;;;3.40;2.25;;;;;;;;;;5075457;28;20127;-60
2022/08/13 14:58:58;;;;;;;3.25;2.38;;;;;;;;;;5083944;28;20408;-60
2022/08/13 15:01:24;;;;;;;4.13;2.38;;;;;;;;;;5077234;28;20074;-60
2022/08/13 15:03:51;;;;;;;6.68;2.28;;;;;;;;;;5071343;28;20075;-60